createdAt,value
2023-08-16T00:01:39.233Z,101713.66
2023-08-16T00:04:06.654Z,101709.59
2023-08-16T00:06:33.672Z,101711.50
2023-08-16T00:09:02.835Z,101702.75
2023-08-16T00:11:29.964Z,101708.63
2023-08-16T00:13:56.742Z,101727.00
2023-08-16T00:16:23.471Z,101716.50
2023-08-16T00:18:50.220Z,101727.84
2023-08-16T00:21:17.955Z,101734.16
2023-08-16T00:23:44.710Z,101714.09
2023-08-16T00:26:11.337Z,101721.66
2023-08-16T00:28:39.090Z,101734.88
2023-08-16T00:31:05.769Z,101733.56
2023-08-16T00:33:32.527Z,101746.78
2023-08-16T00:35:59.253Z,101740.72
2023-08-16T00:38:26.162Z,101745.75
2023-08-16T00:40:52.841Z,101743.34
2023-08-16T00:43:19.960Z,101753.09
2023-08-16T00:45:49.432Z,101749.06
2023-08-16T00:48:16.806Z,101752.38
2023-08-16T00:50:43.884Z,101754.06
2023-08-16T00:53:15.179Z,101748.06
2023-08-16T00:55:42.104Z,101744.88
2023-08-16T00:58:09.146Z,101746.16
2023-08-16T01:00:36.087Z,101748.69
2023-08-16T01:03:02.956Z,101752.50
2023-08-16T01:05:30.510Z,101754.06
2023-08-16T01:07:57.725Z,101746.78
2023-08-16T01:10:33.993Z,101763.97
2023-08-16T01:13:15.190Z,101753.47
2023-08-16T01:15:45.459Z,101765.53
2023-08-16T01:18:14.325Z,101758.38
2023-08-16T01:20:42.807Z,101756.91
2023-08-16T01:23:42.907Z,101745.94
2023-08-16T01:26:39.140Z,101749.53
2023-08-16T01:29:09.241Z,101741.78
2023-08-16T01:31:36.632Z,101755.63
2023-08-16T01:34:03.540Z,101756.34
2023-08-16T01:36:30.191Z,101756.47
2023-08-16T01:38:57.663Z,101757.44
2023-08-16T01:41:39.074Z,101764.81
2023-08-16T01:44:10.908Z,101771.00
2023-08-16T01:46:41.706Z,101756.69
2023-08-16T01:49:09.470Z,101778.41
2023-08-16T01:51:36.392Z,101779.25
2023-08-16T01:54:04.704Z,101750.97
2023-08-16T01:56:34.146Z,101763.63
2023-08-16T01:59:01.049Z,101752.22
2023-08-16T02:01:29.309Z,101761.41
2023-08-16T02:03:59.907Z,101748.91
2023-08-16T02:06:29.071Z,101745.56
2023-08-16T02:08:56.052Z,101749.00
2023-08-16T02:11:25.895Z,101782.22
2023-08-16T02:13:53.636Z,101782.41
2023-08-16T02:16:22.146Z,101777.75
2023-08-16T02:18:52.801Z,101770.97
2023-08-16T02:21:19.780Z,101735.44
2023-08-16T02:23:46.719Z,101755.91
2023-08-16T02:26:17.981Z,101754.25
2023-08-16T02:28:45.039Z,101760.22
2023-08-16T02:31:14.191Z,101742.19
2023-08-16T02:33:42.464Z,101739.09
2023-08-16T02:36:10.273Z,101779.16
2023-08-16T02:38:38.050Z,101765.66
2023-08-16T02:41:04.891Z,101776.94
2023-08-16T02:43:35.073Z,101775.47
2023-08-16T02:46:02.337Z,101774.34
2023-08-16T02:48:32.816Z,101757.13
2023-08-16T02:51:02.743Z,101749.94
2023-08-16T02:53:29.664Z,101752.38
2023-08-16T02:55:56.575Z,101745.72
2023-08-16T02:58:23.453Z,101764.88
2023-08-16T03:00:51.947Z,101756.78
2023-08-16T03:03:19.153Z,101800.03
2023-08-16T03:05:46.077Z,101779.81
2023-08-16T03:08:16.402Z,101762.53
2023-08-16T03:10:43.491Z,101785.41
2023-08-16T03:13:10.426Z,101789.16
2023-08-16T03:15:41.646Z,101780.44
2023-08-16T03:18:11.680Z,101822.97
2023-08-16T03:20:38.513Z,101800.47
2023-08-16T03:23:09.232Z,101792.22
2023-08-16T03:25:48.186Z,101821.09
2023-08-16T03:28:15.050Z,101816.19
2023-08-16T03:30:46.248Z,101782.81
2023-08-16T03:33:14.171Z,101844.50
2023-08-16T03:35:45.624Z,101784.66
2023-08-16T03:38:12.568Z,101795.13
2023-08-16T03:40:40.472Z,101809.09
2023-08-16T03:43:08.245Z,101850.91
2023-08-16T03:45:37.266Z,101838.75
2023-08-16T03:48:06.828Z,101815.47
2023-08-16T03:50:33.749Z,101847.56
2023-08-16T03:53:03.847Z,101833.78
2023-08-16T03:55:33.340Z,101867.81
2023-08-16T03:58:00.253Z,101818.34
2023-08-16T04:00:27.253Z,101870.34
2023-08-16T04:02:59.903Z,101867.22
2023-08-16T04:05:26.947Z,101873.09
2023-08-16T04:07:53.821Z,101877.34
2023-08-16T04:10:20.831Z,101832.25
2023-08-16T04:12:47.605Z,101857.84
2023-08-16T04:15:14.580Z,101876.88
2023-08-16T04:17:41.335Z,101891.13
2023-08-16T04:20:09.076Z,101872.19
2023-08-16T04:22:36.254Z,101893.34
2023-08-16T04:25:03.198Z,101891.63
2023-08-16T04:27:30.976Z,101882.41
2023-08-16T04:29:57.749Z,101884.06
2023-08-16T04:32:24.447Z,101915.50
2023-08-16T04:34:51.268Z,101920.56
2023-08-16T04:37:17.970Z,101918.03
2023-08-16T04:39:44.716Z,101909.81
2023-08-16T04:42:11.454Z,101920.75
2023-08-16T04:44:38.126Z,101913.81
2023-08-16T04:47:05.401Z,101906.38
2023-08-16T04:49:33.640Z,101902.84
2023-08-16T04:52:00.778Z,101911.25
2023-08-16T04:54:27.648Z,101892.81
2023-08-16T04:56:54.693Z,101903.25
2023-08-16T04:59:21.443Z,101892.28
2023-08-16T05:01:48.808Z,101907.69
2023-08-16T05:04:15.546Z,101900.81
2023-08-16T05:06:42.489Z,101905.13
2023-08-16T05:09:09.301Z,101891.88
2023-08-16T05:11:36.611Z,101909.47
2023-08-16T05:14:03.644Z,101906.50
2023-08-16T05:16:30.679Z,101910.72
2023-08-16T05:18:58.826Z,101886.28
2023-08-16T05:21:25.694Z,101918.28
2023-08-16T05:23:53.753Z,101917.59
2023-08-16T05:26:20.484Z,101924.63
2023-08-16T05:28:47.033Z,101923.28
2023-08-16T05:31:14.156Z,101920.72
2023-08-16T05:33:41.085Z,101916.94
2023-08-16T05:36:08.910Z,101906.56
2023-08-16T05:38:35.618Z,101917.13
2023-08-16T05:41:05.677Z,101912.03
2023-08-16T05:43:33.194Z,101918.97
2023-08-16T05:46:00.266Z,101904.94
2023-08-16T05:48:27.039Z,101922.13
2023-08-16T05:50:53.751Z,101903.63
2023-08-16T05:53:20.530Z,101915.84
2023-08-16T05:55:47.265Z,101911.53
2023-08-16T05:58:14.071Z,101922.06
2023-08-16T06:00:40.849Z,101917.06
2023-08-16T06:03:07.901Z,101919.22
2023-08-16T06:05:35.097Z,101912.88
2023-08-16T06:08:01.844Z,101907.38
2023-08-16T06:10:28.709Z,101922.56
2023-08-16T06:12:55.517Z,101924.53
2023-08-16T06:15:22.776Z,101916.88
2023-08-16T06:17:49.635Z,101905.59
2023-08-16T06:20:16.355Z,101923.38
2023-08-16T06:22:43.058Z,101931.28
2023-08-16T06:25:10.635Z,101942.69
2023-08-16T06:27:37.518Z,101946.50
2023-08-16T06:30:04.640Z,101941.22
2023-08-16T06:32:31.390Z,101946.63
2023-08-16T06:34:58.846Z,101959.81
2023-08-16T06:37:25.817Z,101962.44
2023-08-16T06:39:52.884Z,101967.69
2023-08-16T06:42:22.721Z,101963.03
2023-08-16T06:44:49.446Z,101956.47
2023-08-16T06:47:17.824Z,101978.25
2023-08-16T06:49:44.592Z,101971.97
2023-08-16T06:52:11.315Z,101955.22
2023-08-16T06:54:38.175Z,101967.97
2023-08-16T06:57:04.972Z,101953.94
2023-08-16T06:59:32.963Z,101949.56
2023-08-16T07:02:00.560Z,101967.78
2023-08-16T07:04:30.378Z,101968.81
2023-08-16T07:06:57.070Z,101959.19
2023-08-16T07:09:24.149Z,101947.69
2023-08-16T07:11:51.916Z,101968.59
2023-08-16T07:14:18.729Z,101954.66
2023-08-16T07:16:45.689Z,101952.47
2023-08-16T07:19:12.561Z,101963.47
2023-08-16T07:21:40.278Z,101968.44
2023-08-16T07:24:07.356Z,101977.38
2023-08-16T07:26:34.093Z,101973.50
2023-08-16T07:29:01.244Z,101962.94
2023-08-16T07:31:30.596Z,101965.41
2023-08-16T07:33:57.414Z,101966.72
2023-08-16T07:36:24.172Z,101971.03
2023-08-16T07:38:54.051Z,101969.00
2023-08-16T07:41:20.804Z,101974.25
2023-08-16T07:43:47.586Z,101955.69
2023-08-16T07:46:14.364Z,101972.59
2023-08-16T07:48:41.151Z,101966.38
2023-08-16T07:51:07.919Z,101973.50
2023-08-16T07:53:34.863Z,101961.75
2023-08-16T07:56:02.180Z,101968.53
2023-08-16T07:58:28.888Z,101991.69
2023-08-16T08:00:56.178Z,101989.88
2023-08-16T08:03:23.467Z,101995.41
2023-08-16T08:05:50.375Z,101984.16
2023-08-16T08:08:17.139Z,101995.50
2023-08-16T08:10:44.967Z,101985.94
2023-08-16T08:13:12.132Z,101994.84
2023-08-16T08:15:38.994Z,101997.03
2023-08-16T08:18:06.009Z,101981.59
2023-08-16T08:20:32.893Z,101985.22
2023-08-16T08:22:59.665Z,101996.03
2023-08-16T08:25:27.714Z,101980.44
2023-08-16T08:27:54.466Z,102000.28
2023-08-16T08:30:21.333Z,102001.03
2023-08-16T08:32:48.082Z,101988.41
2023-08-16T08:35:15.082Z,101994.91
2023-08-16T08:37:41.890Z,102004.09
2023-08-16T08:40:09.172Z,102012.91
2023-08-16T08:42:36.640Z,102009.66
2023-08-16T08:45:03.595Z,102018.16
2023-08-16T08:47:31.228Z,102011.16
2023-08-16T08:49:58.797Z,102020.00
2023-08-16T08:52:26.411Z,102024.03
2023-08-16T08:54:53.779Z,102009.03
2023-08-16T08:57:22.877Z,102017.34
2023-08-16T08:59:50.792Z,102023.16
2023-08-16T09:02:19.284Z,102013.94
2023-08-16T09:04:47.937Z,102018.41
2023-08-16T09:07:18.384Z,102015.72
2023-08-16T09:09:45.575Z,102015.44
2023-08-16T09:12:16.128Z,102031.81
2023-08-16T09:14:42.892Z,102033.72
2023-08-16T09:17:10.037Z,102031.97
2023-08-16T09:19:44.763Z,102028.41
2023-08-16T09:22:12.821Z,102027.59
2023-08-16T09:24:45.258Z,102034.47
2023-08-16T09:27:15.744Z,102023.34
2023-08-16T09:29:42.557Z,102028.88
2023-08-16T09:32:16.829Z,102028.84
2023-08-16T09:37:16.258Z,102027.41
2023-08-16T09:39:42.994Z,102034.06
2023-08-16T09:42:10.223Z,102038.78
2023-08-16T09:44:38.375Z,102036.16
2023-08-16T09:47:16.384Z,102054.81
2023-08-16T09:49:47.333Z,102043.47
2023-08-16T09:52:14.643Z,102035.66
2023-08-16T09:54:41.636Z,102035.50
2023-08-16T09:59:40.504Z,102037.94
2023-08-16T10:02:14.181Z,102022.00
2023-08-16T10:07:13.649Z,102014.59
2023-08-16T10:09:43.675Z,102018.03
2023-08-16T10:12:12.076Z,102017.28
2023-08-16T10:14:41.942Z,102012.75
2023-08-16T10:17:11.903Z,102019.81
2023-08-16T10:19:44.668Z,102017.88
2023-08-16T10:24:56.855Z,102001.72
2023-08-16T10:27:28.432Z,102011.31
2023-08-16T10:32:38.005Z,101993.94
2023-08-16T10:35:06.949Z,102000.66
2023-08-16T10:37:39.836Z,102000.22
2023-08-16T10:40:27.903Z,102007.34
2023-08-16T10:42:57.196Z,102012.66
2023-08-16T10:48:20.315Z,102010.28
2023-08-16T10:50:59.736Z,102011.59
2023-08-16T10:53:27.152Z,102016.63
2023-08-16T10:55:55.580Z,102012.91
2023-08-16T10:58:25.828Z,102021.00
2023-08-16T11:00:58.294Z,102016.00
2023-08-16T11:03:33.162Z,102028.84
2023-08-16T11:06:01.570Z,102028.47
2023-08-16T11:08:34.114Z,102029.97
2023-08-16T11:11:03.078Z,102026.19
2023-08-16T11:13:30.265Z,102018.53
2023-08-16T11:15:57.326Z,102029.88
2023-08-16T11:18:32.795Z,102024.16
2023-08-16T11:21:01.680Z,102018.25
2023-08-16T11:23:36.881Z,102038.25
2023-08-16T11:26:05.238Z,102031.59
2023-08-16T11:28:33.274Z,102021.25
2023-08-16T11:31:03.805Z,102030.78
2023-08-16T11:33:34.984Z,102024.16
2023-08-16T11:36:03.627Z,102027.69
2023-08-16T11:38:30.820Z,102014.28
2023-08-16T11:40:58.055Z,102012.69
2023-08-16T11:43:34.061Z,102012.66
2023-08-16T11:46:02.854Z,102018.19
2023-08-16T11:48:33.366Z,102018.25
2023-08-16T11:51:00.664Z,102009.59
2023-08-16T11:53:35.765Z,102013.13
2023-08-16T11:56:04.320Z,102011.66
2023-08-16T11:58:31.493Z,102009.59
2023-08-16T12:01:04.407Z,102009.59
2023-08-16T12:03:38.574Z,102009.59
2023-08-16T12:06:10.419Z,102003.50
2023-08-16T12:08:37.865Z,102014.56
2023-08-16T12:11:04.703Z,102009.25
2023-08-16T12:13:35.988Z,102001.78
2023-08-16T12:16:02.738Z,102006.75
2023-08-16T12:18:29.760Z,102009.00
2023-08-16T12:20:57.642Z,102008.31
2023-08-16T12:23:24.338Z,102013.41
2023-08-16T12:25:51.068Z,102023.50
2023-08-16T12:28:18.404Z,102007.34
2023-08-16T12:30:45.095Z,102008.59
2023-08-16T12:33:13.385Z,102009.88
2023-08-16T12:35:42.812Z,102009.56
2023-08-16T12:38:09.896Z,102015.75
2023-08-16T12:40:36.602Z,102010.03
2023-08-16T12:43:10.857Z,101992.66
2023-08-16T12:45:39.209Z,102006.75
2023-08-16T12:48:06.620Z,102014.66
2023-08-16T12:50:33.363Z,102003.53
2023-08-16T12:53:00.669Z,102006.81
2023-08-16T12:55:29.554Z,102002.41
2023-08-16T13:00:45.857Z,102005.91
2023-08-16T13:03:13.207Z,101993.41
2023-08-16T13:05:54.434Z,101998.09
2023-08-16T13:13:31.755Z,101993.63
2023-08-16T13:18:44.254Z,102004.19
2023-08-16T13:23:59.326Z,101998.63
2023-08-16T13:26:38.690Z,101994.84
2023-08-16T13:29:11.138Z,101998.06
2023-08-16T13:32:01.246Z,102000.97
2023-08-16T13:36:59.607Z,102007.72
2023-08-16T13:39:28.975Z,101993.47
2023-08-16T13:44:54.146Z,101992.13
2023-08-16T13:47:15.606Z,101997.34
2023-08-16T13:49:44.688Z,101991.88
2023-08-16T13:52:11.491Z,101990.31
2023-08-16T13:54:38.173Z,101996.34
2023-08-16T13:57:04.870Z,102005.09
2023-08-16T13:59:31.620Z,101996.97
2023-08-16T14:01:58.485Z,101999.19
2023-08-16T14:04:25.280Z,101990.34
2023-08-16T14:06:55.226Z,102006.75
2023-08-16T14:09:21.968Z,101992.09
2023-08-16T14:11:48.735Z,101978.69
2023-08-16T14:14:15.537Z,101983.94
2023-08-16T14:16:43.456Z,101988.56
2023-08-16T14:19:10.273Z,101983.31
2023-08-16T14:21:41.171Z,101978.44
2023-08-16T14:24:10.513Z,101977.41
2023-08-16T14:26:37.391Z,101970.41
2023-08-16T14:29:07.226Z,101973.13
2023-08-16T14:31:34.162Z,101981.63
2023-08-16T14:34:00.801Z,101979.41
2023-08-16T14:36:27.462Z,101970.13
2023-08-16T14:38:59.883Z,101975.41
2023-08-16T14:41:27.893Z,101983.81
2023-08-16T14:43:54.623Z,101974.53
2023-08-16T14:46:23.646Z,101982.78
2023-08-16T14:48:51.767Z,101971.09
2023-08-16T14:51:19.253Z,101978.63
2023-08-16T14:53:46.090Z,101979.19
2023-08-16T14:56:13.781Z,101968.31
2023-08-16T14:58:41.346Z,101971.22
2023-08-16T15:01:08.437Z,101976.44
2023-08-16T15:03:36.205Z,101975.97
2023-08-16T15:06:03.615Z,101975.38
2023-08-16T15:08:30.373Z,101974.41
2023-08-16T15:11:01.718Z,101964.66
2023-08-16T15:13:29.320Z,101960.44
2023-08-16T15:15:57.522Z,101971.88
2023-08-16T15:18:24.413Z,101978.34
2023-08-16T15:20:51.693Z,101962.81
2023-08-16T15:23:24.209Z,101947.94
2023-08-16T15:25:51.056Z,101976.97
2023-08-16T15:28:17.958Z,101958.78
2023-08-16T15:30:44.753Z,101955.09
2023-08-16T15:33:11.498Z,101969.97
2023-08-16T15:35:38.407Z,101938.03
2023-08-16T15:38:07.641Z,101973.13
2023-08-16T15:40:36.890Z,101964.56
2023-08-16T15:43:03.848Z,101953.59
2023-08-16T15:45:30.684Z,101978.22
2023-08-16T15:47:57.424Z,101961.56
2023-08-16T15:50:24.091Z,101956.63
2023-08-16T15:52:50.749Z,101964.09
2023-08-16T15:55:17.613Z,101959.09
2023-08-16T15:57:44.365Z,101955.78
2023-08-16T16:00:11.841Z,101955.50
2023-08-16T16:02:38.617Z,101961.94
2023-08-16T16:05:05.469Z,101960.53
2023-08-16T16:07:32.394Z,101958.78
2023-08-16T16:09:59.071Z,101957.53
2023-08-16T16:12:25.916Z,101968.66
2023-08-16T16:14:55.700Z,101960.44
2023-08-16T16:17:27.162Z,101956.78
2023-08-16T16:19:54.620Z,101955.38
2023-08-16T16:22:21.378Z,101953.00
2023-08-16T16:24:49.237Z,101953.41
2023-08-16T16:27:16.121Z,101939.34
2023-08-16T16:29:42.868Z,101945.75
2023-08-16T16:32:09.520Z,101950.69
2023-08-16T16:34:36.344Z,101954.44
2023-08-16T16:37:03.150Z,101959.16
2023-08-16T16:39:29.929Z,101961.69
2023-08-16T16:41:57.940Z,101964.81
2023-08-16T16:44:25.968Z,101965.53
2023-08-16T16:46:52.871Z,101948.47
2023-08-16T16:49:19.917Z,101970.66
2023-08-16T16:51:46.666Z,101954.91
2023-08-16T16:54:13.445Z,101953.47
2023-08-16T16:56:40.217Z,101975.00
2023-08-16T16:59:06.979Z,101963.69
2023-08-16T17:01:35.658Z,101967.34
2023-08-16T17:04:02.699Z,101973.41
2023-08-16T17:06:30.090Z,101966.03
2023-08-16T17:08:57.127Z,101978.69
2023-08-16T17:11:24.992Z,101988.94
2023-08-16T17:13:52.610Z,101985.75
2023-08-16T17:16:22.356Z,101985.78
2023-08-16T17:18:49.261Z,101988.53
2023-08-16T17:21:18.969Z,101987.56
2023-08-16T17:23:46.695Z,101990.13
2023-08-16T17:26:13.742Z,101988.28
2023-08-16T17:28:41.220Z,101980.56
2023-08-16T17:31:09.801Z,101995.41
2023-08-16T17:33:36.964Z,101987.69
2023-08-16T17:36:07.233Z,101988.00
2023-08-16T17:38:33.992Z,101984.09
2023-08-16T17:41:00.877Z,101988.97
2023-08-16T17:43:27.657Z,101992.19
2023-08-16T17:45:54.385Z,101996.72
2023-08-16T17:48:21.773Z,101997.97
2023-08-16T17:50:48.696Z,101988.16
2023-08-16T17:53:15.832Z,102002.47
2023-08-16T17:55:42.704Z,102003.50
2023-08-16T17:58:09.340Z,102013.78
2023-08-16T18:00:37.742Z,102005.88
2023-08-16T18:03:05.480Z,102006.34
2023-08-16T18:05:32.443Z,102008.53
2023-08-16T18:07:59.379Z,102007.47
2023-08-16T18:10:26.042Z,102015.75
2023-08-16T18:12:52.868Z,102008.75
2023-08-16T18:15:19.604Z,101996.66
2023-08-16T18:17:46.383Z,102016.53
2023-08-16T18:20:13.524Z,102005.22
2023-08-16T18:22:40.326Z,101994.69
2023-08-16T18:25:07.354Z,101994.66
2023-08-16T18:27:34.199Z,102028.06
2023-08-16T18:30:00.957Z,102018.00
2023-08-16T18:32:30.886Z,102016.63
2023-08-16T18:34:57.585Z,102026.50
2023-08-16T18:37:24.612Z,102019.25
2023-08-16T18:39:51.633Z,102035.03
2023-08-16T18:42:18.421Z,102041.88
2023-08-16T18:44:45.374Z,102008.47
2023-08-16T18:47:12.208Z,102050.94
2023-08-16T18:49:41.207Z,102026.28
2023-08-16T18:52:08.096Z,102026.28
2023-08-16T18:54:34.680Z,102041.28
2023-08-16T18:57:01.332Z,102045.09
2023-08-16T18:59:32.188Z,102034.97
2023-08-16T19:01:59.374Z,102058.13
2023-08-16T19:04:26.252Z,102043.28
2023-08-16T19:06:56.125Z,102039.63
2023-08-16T19:09:22.858Z,102059.66
2023-08-16T19:11:50.581Z,102046.53
2023-08-16T19:14:17.388Z,102060.31
2023-08-16T19:16:44.100Z,102060.03
2023-08-16T19:19:10.953Z,102066.78
2023-08-16T19:21:39.415Z,102055.97
2023-08-16T19:24:06.435Z,102053.00
2023-08-16T19:26:33.128Z,102070.44
2023-08-16T19:28:59.821Z,102060.06
2023-08-16T19:31:26.581Z,102069.34
2023-08-16T19:33:53.891Z,102066.53
2023-08-16T19:36:21.094Z,102070.59
2023-08-16T19:38:48.047Z,102077.50
2023-08-16T19:41:17.224Z,102080.97
2023-08-16T19:43:43.948Z,102077.75
2023-08-16T19:46:11.230Z,102081.13
2023-08-16T19:48:38.109Z,102076.53
2023-08-16T19:51:04.900Z,102068.22
2023-08-16T19:53:31.646Z,102082.50
2023-08-16T19:55:58.383Z,102075.78
2023-08-16T19:58:40.332Z,102101.34
2023-08-16T20:01:07.616Z,102077.72
2023-08-16T20:03:34.599Z,102071.91
2023-08-16T20:06:01.595Z,102056.34
2023-08-16T20:08:32.441Z,102042.31
2023-08-16T20:10:59.336Z,102061.66
2023-08-16T20:13:27.273Z,102072.31
2023-08-16T20:15:55.136Z,102087.44
2023-08-16T20:18:22.019Z,102085.97
2023-08-16T20:20:50.075Z,102094.56
2023-08-16T20:23:16.814Z,102072.84
2023-08-16T20:25:43.543Z,102071.88
2023-08-16T20:28:10.237Z,102085.97
2023-08-16T20:30:37.031Z,102073.06
2023-08-16T20:33:04.948Z,102091.75
2023-08-16T20:35:34.655Z,102086.56
2023-08-16T20:38:02.612Z,102078.41
2023-08-16T20:40:29.528Z,102095.59
2023-08-16T20:42:56.254Z,102095.84
2023-08-16T20:45:23.256Z,102093.47
2023-08-16T20:47:49.958Z,102093.53
2023-08-16T20:50:16.934Z,102089.53
2023-08-16T20:52:44.086Z,102089.28
2023-08-16T20:55:11.671Z,102092.06
2023-08-16T20:57:39.023Z,102085.84
2023-08-16T21:00:07.106Z,102080.19
2023-08-16T21:02:34.265Z,102077.88
2023-08-16T21:05:01.077Z,102082.53
2023-08-16T21:07:28.197Z,102079.56
2023-08-16T21:09:55.413Z,102080.41
2023-08-16T21:12:22.218Z,102081.00
2023-08-16T21:14:49.926Z,102072.97
2023-08-16T21:17:16.733Z,102079.66
2023-08-16T21:19:43.554Z,102061.75
2023-08-16T21:22:10.401Z,102081.00
2023-08-16T21:24:37.393Z,102085.16
2023-08-16T21:27:04.828Z,102061.22
2023-08-16T21:29:34.092Z,102084.69
2023-08-16T21:32:00.970Z,102081.25
2023-08-16T21:34:27.800Z,102069.59
2023-08-16T21:36:55.548Z,102090.69
2023-08-16T21:39:22.818Z,102088.03
2023-08-16T21:41:49.627Z,102080.91
2023-08-16T21:44:18.544Z,102087.06
2023-08-16T21:46:46.651Z,102092.13
2023-08-16T21:49:13.503Z,102101.03
2023-08-16T21:51:40.336Z,102084.56
2023-08-16T21:54:07.102Z,102097.34
2023-08-16T21:56:33.870Z,102100.25
2023-08-16T21:59:00.661Z,102096.53
2023-08-16T22:01:27.507Z,102085.31
2023-08-16T22:03:54.433Z,102084.72
2023-08-16T22:06:21.310Z,102085.50
2023-08-16T22:08:48.066Z,102078.34
2023-08-16T22:11:15.029Z,102084.66
2023-08-16T22:13:41.789Z,102097.53
2023-08-16T22:16:08.562Z,102103.47
2023-08-16T22:18:35.339Z,102095.75
2023-08-16T22:21:03.978Z,102100.56
2023-08-16T22:23:31.394Z,102089.44
2023-08-16T22:25:58.365Z,102094.44
2023-08-16T22:28:25.417Z,102085.97
2023-08-16T22:30:52.166Z,102069.88
2023-08-16T22:33:18.933Z,102080.19
2023-08-16T22:35:45.646Z,102083.81
2023-08-16T22:38:14.907Z,102089.38
2023-08-16T22:40:42.699Z,102088.78
2023-08-16T22:43:09.325Z,102093.41
2023-08-16T22:45:35.993Z,102086.94
2023-08-16T22:48:04.096Z,102084.03
2023-08-16T22:50:31.534Z,102102.72
2023-08-16T22:52:58.615Z,102093.69
2023-08-16T22:55:26.350Z,102073.25
2023-08-16T22:57:53.125Z,102078.19
2023-08-16T23:00:19.797Z,102084.28
2023-08-16T23:02:46.526Z,102087.69
2023-08-16T23:05:14.413Z,102068.97
2023-08-16T23:07:41.131Z,102076.16
2023-08-16T23:10:08.051Z,102076.00
2023-08-16T23:12:35.872Z,102066.94
2023-08-16T23:15:02.874Z,102074.31
2023-08-16T23:17:30.661Z,102060.31
2023-08-16T23:19:58.482Z,102067.47
2023-08-16T23:22:26.173Z,102071.03
2023-08-16T23:24:53.160Z,102056.31
2023-08-16T23:27:29.585Z,102076.91
2023-08-16T23:30:09.802Z,102077.28
2023-08-16T23:32:42.330Z,102066.88
2023-08-16T23:35:14.307Z,102061.56
2023-08-16T23:37:43.165Z,102073.44
2023-08-16T23:40:10.469Z,102069.31
2023-08-16T23:42:38.133Z,102065.06
2023-08-16T23:45:05.380Z,102061.78
2023-08-16T23:47:32.120Z,102086.13
2023-08-16T23:50:00.821Z,102094.34
2023-08-16T23:52:28.126Z,102098.78
2023-08-16T23:54:54.926Z,102113.53
2023-08-16T23:57:21.678Z,102109.75
2023-08-16T23:59:48.425Z,102108.97
